aviador You're here:

LFOJ Decoded Metar

ORLEANS in FRANCE
Report Time2018-07-16 08:00:00
UTC Time2018-07-16 08:11:56
Flight Rules vfr VFR
Wind010° at 06 kt
W.Decomp.*RWY 07: 3.1 kt HW 5.1 kt LCW
W.Rank010° ranks 16
Current wind is below 010° avg. (6.5)
Visibility9999 m
Phenomena:N/A
Clouds:N/A
Expected CloudBase > 3,200 ft AGL from Temp-Dew spread
CeilingNone
Temp22°C (ISA +8)
Dew Point14°C (61% RH)
AAT21.1°C
QNH1013 hPa
Density Alt1,535 ft
Elevation410 ft
Report Wrong Elevation
Raw Report
LFOJ 160800Z AUTO 01006KT 350V050 CAVOK 22/14 Q1013 NOSIG=

Extra information for LFOJ:More info

Metar Taf Metar & Taf Last 4 Metars F.Rules Stats Wind Profile Meteogram Temp Stats Airport Information Weather charts Add Link Nearby VenuesMetar ALERT Operation Metar Decoded Social comments